Time;durP1;ratioP1;P1;durP2;ratioP2;P2;SDS_P1;SDS_P2;PMS_P1;PMS_P2;Temp;Humidity;BMP_temperature;BMP_pressure;BME280_temperature;BME280_humidity;BME280_pressure;Samples;Min_cycle;Max_cycle;Signal;HPM_P1;HPM_P2
2021/09/08 02:46:49;;;;;;;22.45;13.18;;;13.00;96.60;;;;;;5179369;24;20085;-82
2021/09/08 02:49:14;;;;;;;23.90;14.15;;;13.00;96.60;;;;;;4840176;29;20034;-81
2021/09/08 02:51:40;;;;;;;27.25;13.98;;;13.00;96.60;;;;;;4824215;29;20034;-82
2021/09/08 02:54:06;;;;;;;22.20;15.02;;;12.90;96.60;;;;;;4825840;29;20062;-82
2021/09/08 02:56:31;;;;;;;24.63;14.55;;;13.00;96.60;;;;;;4842816;29;20033;-82
2021/09/08 02:58:57;;;;;;;26.23;14.90;;;12.90;96.60;;;;;;4843140;29;20218;-81
2021/09/08 03:01:23;;;;;;;24.90;14.20;;;12.90;96.70;;;;;;4842700;29;20037;-81
2021/09/08 03:03:49;;;;;;;25.88;14.23;;;12.90;96.80;;;;;;4842687;29;20229;-81
2021/09/08 03:06:14;;;;;;;21.10;12.90;;;12.90;96.80;;;;;;4842493;29;20025;-81
2021/09/08 03:08:40;;;;;;;23.75;14.35;;;12.90;96.80;;;;;;4843269;29;20057;-81
2021/09/08 03:11:07;;;;;;;19.48;14.20;;;12.90;96.70;;;;;;4843031;29;20033;-81
2021/09/08 03:13:34;;;;;;;21.05;13.25;;;12.90;96.70;;;;;;4843043;29;20038;-80
2021/09/08 03:16:00;;;;;;;24.00;13.32;;;12.80;96.80;;;;;;4842635;29;20255;-81
2021/09/08 03:18:26;;;;;;;20.20;13.35;;;12.80;96.80;;;;;;4842631;29;20025;-81
2021/09/08 03:20:51;;;;;;;22.85;14.07;;;12.80;96.70;;;;;;4842913;29;20041;-81
2021/09/08 03:23:17;;;;;;;24.65;14.23;;;12.80;96.60;;;;;;4842594;29;20029;-81
2021/09/08 03:25:43;;;;;;;22.17;13.35;;;12.80;96.50;;;;;;4842919;29;20029;-81
2021/09/08 03:28:08;;;;;;;19.90;13.02;;;12.80;96.60;;;;;;4843036;29;20055;-81
2021/09/08 03:30:35;;;;;;;21.00;13.65;;;12.80;96.50;;;;;;4842380;29;20041;-81
2021/09/08 03:33:01;;;;;;;21.20;13.30;;;12.80;96.60;;;;;;4842194;29;20030;-82
2021/09/08 03:35:27;;;;;;;21.30;13.63;;;12.70;96.50;;;;;;4842584;29;20052;-81
2021/09/08 03:37:53;;;;;;;19.48;13.30;;;12.70;96.50;;;;;;4842322;29;20286;-81
2021/09/08 03:40:19;;;;;;;21.90;12.57;;;12.70;96.50;;;;;;4842280;29;20044;-81
2021/09/08 03:42:45;;;;;;;21.42;13.95;;;12.70;96.50;;;;;;4842188;29;20351;-81
2021/09/08 03:45:14;;;;;;;22.80;13.07;;;12.70;96.50;;;;;;4842434;29;20078;-81
2021/09/08 03:47:41;;;;;;;25.35;13.40;;;12.60;96.60;;;;;;4842185;29;20041;-82
2021/09/08 03:50:07;;;;;;;21.63;13.10;;;12.60;96.80;;;;;;4827056;29;20104;-81
2021/09/08 03:52:33;;;;;;;19.70;12.77;;;12.60;96.50;;;;;;4842034;29;20041;-81
2021/09/08 03:54:59;;;;;;;19.08;12.35;;;12.60;96.50;;;;;;4859209;29;20318;-81
2021/09/08 03:57:24;;;;;;;20.08;12.98;;;12.60;96.40;;;;;;4827081;29;20049;-81
2021/09/08 03:59:50;;;;;;;17.83;12.18;;;12.60;96.40;;;;;;4827356;29;20082;-80
2021/09/08 04:02:16;;;;;;;19.85;13.10;;;12.50;96.40;;;;;;4827260;29;20198;-80
2021/09/08 04:04:42;;;;;;;22.55;13.73;;;12.50;96.40;;;;;;4842227;29;20313;-80
2021/09/08 04:07:10;;;;;;;32.95;13.82;;;12.50;96.50;;;;;;4842304;29;20059;-80
2021/09/08 04:09:35;;;;;;;24.05;14.25;;;12.50;96.50;;;;;;4827164;29;20109;-81
2021/09/08 04:12:01;;;;;;;27.92;13.38;;;12.40;96.40;;;;;;4826980;29;20033;-81
2021/09/08 04:14:27;;;;;;;21.75;12.85;;;12.40;96.50;;;;;;4826150;29;20046;-81
2021/09/08 04:16:53;;;;;;;22.48;13.85;;;12.40;96.50;;;;;;4826221;29;20030;-81
2021/09/08 04:19:20;;;;;;;19.98;12.75;;;12.40;96.60;;;;;;4842108;29;20045;-81
2021/09/08 04:21:46;;;;;;;20.42;13.18;;;12.40;96.60;;;;;;4826431;29;20104;-80
2021/09/08 04:24:11;;;;;;;23.42;13.45;;;12.40;96.90;;;;;;4826703;29;20048;-80
2021/09/08 04:26:37;;;;;;;31.15;14.77;;;12.40;96.60;;;;;;4841820;29;20026;-80
2021/09/08 04:29:03;;;;;;;21.88;13.80;;;12.40;96.60;;;;;;4858065;29;20026;-80
2021/09/08 04:31:29;;;;;;;29.52;14.75;;;12.40;96.70;;;;;;4841798;29;20026;-81
2021/09/08 04:33:54;;;;;;;32.60;15.98;;;12.40;96.60;;;;;;4841900;29;20078;-80
2021/09/08 04:36:20;;;;;;;25.60;14.85;;;12.40;96.70;;;;;;4841900;29;20159;-80
2021/09/08 04:38:46;;;;;;;29.40;16.10;;;12.50;96.80;;;;;;4841465;29;20078;-80
2021/09/08 04:41:15;;;;;;;28.17;14.57;;;12.50;96.90;;;;;;4856759;29;20034;-81
2021/09/08 04:43:41;;;;;;;30.38;14.18;;;12.50;96.80;;;;;;4826253;29;20108;-80
2021/09/08 04:46:07;;;;;;;27.17;13.83;;;12.50;97.00;;;;;;4844615;29;20373;-80
2021/09/08 04:48:33;;;;;;;28.50;16.20;;;12.50;96.90;;;;;;4856663;29;20029;-80
2021/09/08 04:51:00;;;;;;;26.10;14.30;;;12.60;97.00;;;;;;4841931;29;20330;-80
2021/09/08 04:53:25;;;;;;;25.55;14.40;;;12.60;96.90;;;;;;4856668;29;20026;-81
2021/09/08 04:55:51;;;;;;;23.75;14.77;;;12.60;96.90;;;;;;4841143;29;20065;-81
2021/09/08 04:58:17;;;;;;;28.60;15.10;;;12.70;96.90;;;;;;4840943;29;20033;-81
2021/09/08 05:00:43;;;;;;;24.50;14.52;;;12.80;96.90;;;;;;4841114;29;20071;-81
2021/09/08 05:03:09;;;;;;;25.40;14.52;;;12.80;96.90;;;;;;4855708;29;20033;-81
2021/09/08 05:05:34;;;;;;;23.58;14.25;;;12.90;96.90;;;;;;4847662;29;20059;-81
2021/09/08 05:08:00;;;;;;;21.23;13.77;;;12.90;96.90;;;;;;4851177;29;20033;-81
2021/09/08 05:10:26;;;;;;;29.40;15.60;;;13.00;96.90;;;;;;4850705;29;20094;-80
2021/09/08 05:12:52;;;;;;;28.52;16.70;;;13.10;96.80;;;;;;4847225;29;20042;-80
2021/09/08 05:15:17;;;;;;;24.15;15.02;;;13.20;96.80;;;;;;4870913;29;20321;-80
2021/09/08 05:17:44;;;;;;;28.05;14.75;;;13.30;96.90;;;;;;4848673;29;20038;-80
2021/09/08 05:20:10;;;;;;;26.85;14.75;;;13.40;96.90;;;;;;4869803;29;20040;-80
2021/09/08 05:22:36;;;;;;;25.63;14.85;;;13.40;96.80;;;;;;4855872;29;20478;-80
2021/09/08 05:25:03;;;;;;;23.00;14.27;;;13.50;96.90;;;;;;4854021;29;20029;-80
2021/09/08 05:27:28;;;;;;;22.35;14.13;;;13.60;96.90;;;;;;4848086;29;20038;-80
2021/09/08 05:29:54;;;;;;;21.23;14.25;;;13.70;96.90;;;;;;4868587;29;20052;-81
2021/09/08 05:32:20;;;;;;;29.92;15.23;;;13.70;96.70;;;;;;4851767;29;20062;-82
2021/09/08 05:34:46;;;;;;;33.33;18.08;;;13.80;96.60;;;;;;4858561;29;20038;-82
2021/09/08 05:37:11;;;;;;;42.13;17.90;;;13.90;96.70;;;;;;4851794;29;20060;-83
2021/09/08 05:39:37;;;;;;;35.95;16.63;;;14.00;96.50;;;;;;4850256;29;20025;-82
2021/09/08 05:42:03;;;;;;;36.38;18.95;;;14.20;96.40;;;;;;4848694;29;20045;-82
2021/09/08 05:44:29;;;;;;;33.63;16.17;;;14.30;96.30;;;;;;4858388;29;20376;-82
2021/09/08 05:46:54;;;;;;;36.85;15.25;;;14.40;96.40;;;;;;4845371;29;20046;-83
2021/09/08 05:49:20;;;;;;;25.02;16.10;;;14.50;96.10;;;;;;4828223;29;20053;-82
2021/09/08 05:51:46;;;;;;;42.17;18.67;;;14.60;96.10;;;;;;4847763;29;20026;-82
2021/09/08 05:54:12;;;;;;;41.50;17.75;;;14.70;95.90;;;;;;4839406;29;20034;-82
2021/09/08 05:56:37;;;;;;;39.83;18.35;;;14.90;95.70;;;;;;4843077;29;20022;-82
2021/09/08 05:59:03;;;;;;;38.33;17.73;;;15.00;95.90;;;;;;4860463;29;20029;-81
2021/09/08 06:01:29;;;;;;;35.13;16.08;;;15.10;95.80;;;;;;4864069;29;20080;-81
2021/09/08 06:03:55;;;;;;;32.85;17.98;;;15.20;95.70;;;;;;4866411;29;20033;-81
2021/09/08 06:06:21;;;;;;;29.23;16.27;;;15.30;95.80;;;;;;4867257;29;20034;-81
2021/09/08 06:08:47;;;;;;;29.73;16.98;;;15.40;95.80;;;;;;4844045;29;20085;-82
2021/09/08 06:11:12;;;;;;;29.02;16.67;;;15.50;95.90;;;;;;4844395;29;20037;-82
2021/09/08 06:13:39;;;;;;;38.65;17.67;;;15.50;95.90;;;;;;4859464;29;20029;-82
2021/09/08 06:16:04;;;;;;;34.28;17.65;;;15.70;95.60;;;;;;4857872;29;20038;-82
2021/09/08 06:18:30;;;;;;;27.38;15.52;;;15.70;95.50;;;;;;4841245;29;20057;-82
2021/09/08 06:20:56;;;;;;;34.63;17.63;;;15.90;95.30;;;;;;4852790;29;20374;-81
2021/09/08 06:23:22;;;;;;;37.83;15.63;;;16.00;95.10;;;;;;4869211;29;20034;-81
2021/09/08 06:25:48;;;;;;;33.40;15.88;;;16.20;94.70;;;;;;4863258;29;20387;-82
2021/09/08 06:28:14;;;;;;;24.88;15.45;;;16.30;94.10;;;;;;4874936;29;20037;-82
2021/09/08 06:30:40;;;;;;;36.70;14.90;;;16.50;93.70;;;;;;4871381;29;20307;-83
2021/09/08 06:33:06;;;;;;;34.17;15.05;;;16.60;93.50;;;;;;4865721;29;20025;-82
2021/09/08 06:35:32;;;;;;;29.45;16.02;;;16.70;93.00;;;;;;4850767;29;20045;-82
2021/09/08 06:37:58;;;;;;;28.45;16.23;;;16.80;92.90;;;;;;4861377;29;20042;-81
2021/09/08 06:40:24;;;;;;;32.13;15.48;;;16.90;92.90;;;;;;4858334;29;20030;-81
2021/09/08 06:42:49;;;;;;;23.35;14.57;;;17.10;92.70;;;;;;4853445;29;20090;-82
2021/09/08 06:45:16;;;;;;;29.65;15.52;;;17.20;92.50;;;;;;4857484;29;20044;-81
2021/09/08 06:47:42;;;;;;;23.73;15.90;;;17.20;91.40;;;;;;4861787;29;20046;-79
2021/09/08 06:50:08;;;;;;;25.67;14.05;;;17.30;91.80;;;;;;4839955;29;20038;-80
2021/09/08 06:52:34;;;;;;;30.60;14.70;;;17.30;91.20;;;;;;4855547;29;20042;-81
2021/09/08 06:55:00;;;;;;;25.50;14.77;;;17.40;90.70;;;;;;4857000;29;20096;-82
2021/09/08 06:57:26;;;;;;;25.35;13.73;;;17.50;90.70;;;;;;4840294;29;20033;-81
2021/09/08 06:59:52;;;;;;;23.55;14.45;;;17.60;89.20;;;;;;4840020;29;20029;-81
2021/09/08 07:02:18;;;;;;;27.75;13.93;;;17.70;89.20;;;;;;4844786;29;20034;-81
2021/09/08 07:04:43;;;;;;;18.92;13.20;;;17.80;89.30;;;;;;4855176;29;20038;-81
2021/09/08 07:07:09;;;;;;;25.08;13.20;;;17.90;89.00;;;;;;4855793;29;20217;-82
2021/09/08 07:09:35;;;;;;;23.27;13.50;;;18.00;87.80;;;;;;4854274;29;20423;-82
2021/09/08 07:12:01;;;;;;;25.30;12.85;;;18.10;86.70;;;;;;4834869;29;20079;-81
2021/09/08 07:14:27;;;;;;;23.17;13.90;;;18.30;86.50;;;;;;4820981;29;20112;-81
2021/09/08 07:16:53;;;;;;;23.13;14.43;;;18.30;86.00;;;;;;4853787;29;20037;-81
2021/09/08 07:19:19;;;;;;;22.58;13.35;;;18.50;85.20;;;;;;4839489;29;20335;-82
2021/09/08 07:21:45;;;;;;;22.85;13.05;;;18.60;85.30;;;;;;4854317;29;20074;-80
2021/09/08 07:24:10;;;;;;;20.45;12.27;;;18.70;85.60;;;;;;4839404;29;20225;-80
2021/09/08 07:26:36;;;;;;;23.90;13.20;;;18.80;84.00;;;;;;4837483;29;21871;-82
2021/09/08 07:29:07;;;;;;;19.60;13.48;;;19.00;83.40;;;;;;4855854;29;20029;-81
2021/09/08 07:31:33;;;;;;;33.55;13.75;;;19.10;84.00;;;;;;4839310;29;20033;-79
2021/09/08 07:33:59;;;;;;;21.90;13.53;;;19.30;81.00;;;;;;4839185;29;20128;-81
2021/09/08 07:36:25;;;;;;;25.60;13.43;;;19.40;82.70;;;;;;4824168;29;20037;-81
2021/09/08 07:38:53;;;;;;;20.40;11.15;;;19.50;82.70;;;;;;4854402;29;20474;-81
2021/09/08 07:41:20;;;;;;;19.27;11.13;;;19.60;81.70;;;;;;4854364;29;20022;-82
2021/09/08 07:43:47;;;;;;;19.05;12.07;;;19.70;79.40;;;;;;4854201;29;20100;-82
2021/09/08 07:46:14;;;;;;;20.13;10.48;;;19.90;78.20;;;;;;4853643;29;20117;-82
2021/09/08 07:48:40;;;;;;;;;;;19.90;79.60;;;;;;4853709;29;20034;-81
2021/09/08 07:51:06;;;;;;;22.90;11.17;;;20.00;78.50;;;;;;4835597;29;19948;-81
2021/09/08 07:53:33;;;;;;;20.63;11.02;;;20.00;78.20;;;;;;4853592;29;20034;-82
2021/09/08 07:55:58;;;;;;;17.33;10.33;;;20.00;77.30;;;;;;4838253;29;20038;-81
2021/09/08 07:58:24;;;;;;;19.25;11.23;;;20.10;77.30;;;;;;4838614;29;20045;-82
2021/09/08 08:00:50;;;;;;;21.13;10.38;;;20.30;78.00;;;;;;4853526;29;20074;-81
2021/09/08 08:03:15;;;;;;;17.85;9.98;;;20.60;76.80;;;;;;4837916;29;20041;-81
2021/09/08 08:05:41;;;;;;;29.10;10.50;;;20.70;75.50;;;;;;4853400;29;20034;-81
2021/09/08 08:08:07;;;;;;;21.27;9.90;;;20.80;75.50;;;;;;4852803;29;20249;-81
2021/09/08 08:10:33;;;;;;;20.17;9.52;;;20.90;74.00;;;;;;4838555;29;20030;-81
2021/09/08 08:12:59;;;;;;;23.35;10.77;;;21.10;74.20;;;;;;4837957;29;20105;-81
2021/09/08 08:15:25;;;;;;;21.60;9.55;;;21.20;73.90;;;;;;4853306;29;20034;-81
2021/09/08 08:17:51;;;;;;;20.13;9.37;;;21.30;73.30;;;;;;4853569;29;20040;-81
2021/09/08 08:20:18;;;;;;;22.33;9.52;;;21.40;72.60;;;;;;4838335;29;20053;-81
2021/09/08 08:22:44;;;;;;;;;;;21.50;72.40;;;;;;4835129;29;20030;-82
2021/09/08 08:25:13;;;;;;;26.33;10.30;;;21.50;71.70;;;;;;4835034;29;20192;-81
2021/09/08 08:27:39;;;;;;;33.75;10.95;;;21.60;72.70;;;;;;4851002;29;20271;-81
2021/09/08 08:30:06;;;;;;;19.10;9.50;;;21.70;71.90;;;;;;4853112;29;20029;-81
2021/09/08 08:32:33;;;;;;;17.13;9.63;;;21.90;71.80;;;;;;4852899;29;20034;-81
2021/09/08 08:34:59;;;;;;;17.63;9.25;;;22.00;73.00;;;;;;4852923;29;20038;-81
2021/09/08 08:37:24;;;;;;;19.67;8.93;;;22.20;71.20;;;;;;4854187;29;20070;-81
2021/09/08 08:39:50;;;;;;;29.15;11.25;;;22.40;70.60;;;;;;4852627;29;20038;-81
2021/09/08 08:42:22;;;;;;;23.50;11.18;;;22.50;69.30;;;;;;4837991;29;20061;-81
2021/09/08 08:44:49;;;;;;;20.48;8.55;;;22.70;69.80;;;;;;4853063;29;20026;-81
2021/09/08 08:47:16;;;;;;;20.52;9.32;;;22.70;68.50;;;;;;4852931;29;20073;-81
2021/09/08 08:49:43;;;;;;;17.83;8.25;;;22.80;66.00;;;;;;4837909;29;20022;-81
2021/09/08 08:52:09;;;;;;;14.85;7.22;;;22.80;67.60;;;;;;4837818;29;20044;-81
2021/09/08 08:54:35;;;;;;;18.08;8.68;;;23.00;66.40;;;;;;4837631;29;20030;-81
2021/09/08 08:57:01;;;;;;;25.20;8.32;;;23.20;65.60;;;;;;4852948;29;20030;-81
2021/09/08 08:59:27;;;;;;;14.40;8.00;;;23.30;64.50;;;;;;4837512;29;20387;-80
2021/09/08 09:01:53;;;;;;;14.77;8.23;;;23.40;65.90;;;;;;4852947;29;20287;-79
2021/09/08 09:04:19;;;;;;;16.70;7.93;;;23.60;63.60;;;;;;4837910;29;20066;-81
2021/09/08 09:06:49;;;;;;;18.70;7.60;;;23.70;61.50;;;;;;4852915;29;20251;-81
2021/09/08 09:09:17;;;;;;;16.75;7.95;;;23.60;64.10;;;;;;4852723;29;20034;-81
2021/09/08 09:11:47;;;;;;;18.15;7.63;;;23.70;63.30;;;;;;4852787;29;20362;-81
2021/09/08 09:14:14;;;;;;;17.10;7.90;;;23.80;62.50;;;;;;4853297;29;20034;-81
2021/09/08 09:16:41;;;;;;;16.15;8.27;;;24.00;63.20;;;;;;4846546;29;20030;-81
2021/09/08 09:19:09;;;;;;;15.27;7.38;;;24.10;61.30;;;;;;4835556;29;20030;-80
2021/09/08 09:21:35;;;;;;;12.52;6.93;;;24.20;62.10;;;;;;4836017;29;20023;-81
2021/09/08 09:24:05;;;;;;;15.40;7.85;;;24.20;61.30;;;;;;4834501;29;20037;-81
2021/09/08 09:26:36;;;;;;;19.23;6.65;;;24.30;62.00;;;;;;4819401;29;20030;-79
2021/09/08 09:29:06;;;;;;;13.25;7.03;;;24.50;61.60;;;;;;4852293;29;20030;-81
2021/09/08 09:31:33;;;;;;;15.15;7.68;;;24.70;60.70;;;;;;4852630;29;20096;-80
2021/09/08 09:33:59;;;;;;;13.53;7.07;;;24.90;59.70;;;;;;4837408;29;20034;-81
2021/09/08 09:36:30;;;;;;;12.80;7.25;;;25.10;60.80;;;;;;4853167;29;20029;-80
2021/09/08 09:38:57;;;;;;;14.57;7.05;;;25.20;58.30;;;;;;4852620;29;20074;-80
2021/09/08 09:41:26;;;;;;;12.60;7.60;;;25.20;58.70;;;;;;4852477;29;20044;-79
2021/09/08 09:43:52;;;;;;;22.35;7.22;;;25.40;59.20;;;;;;4852668;29;20030;-79
2021/09/08 09:46:18;;;;;;;13.30;6.97;;;25.60;58.50;;;;;;4852485;29;20081;-78
2021/09/08 09:48:44;;;;;;;15.55;7.20;;;25.60;56.80;;;;;;4852376;29;20038;-80
2021/09/08 09:51:12;;;;;;;14.17;7.33;;;25.50;57.60;;;;;;4837872;29;20060;-78
2021/09/08 09:53:39;;;;;;;19.17;6.85;;;25.60;56.90;;;;;;4837499;29;20108;-78
2021/09/08 09:56:05;;;;;;;17.75;7.03;;;25.70;57.10;;;;;;4852546;29;20033;-78
2021/09/08 09:58:31;;;;;;;15.48;6.68;;;25.70;56.70;;;;;;4852577;29;20038;-78
2021/09/08 10:00:57;;;;;;;11.57;7.00;;;25.70;55.90;;;;;;4852361;29;20215;-78
2021/09/08 10:03:23;;;;;;;13.65;6.28;;;25.80;55.40;;;;;;4851946;29;20030;-78
2021/09/08 10:05:49;;;;;;;23.97;6.97;;;25.80;54.60;;;;;;4836758;29;20030;-78
2021/09/08 10:08:21;;;;;;;11.47;6.33;;;25.80;55.50;;;;;;4851803;29;20037;-79
2021/09/08 10:10:51;;;;;;;14.70;6.97;;;25.90;56.00;;;;;;4852040;29;20059;-79
2021/09/08 10:13:41;;;;;;;14.85;6.38;;;26.00;54.30;;;;;;4840239;29;20207;-78
2021/09/08 10:16:07;;;;;;;17.30;6.50;;;26.20;55.60;;;;;;4782407;30;20047;-78
2021/09/08 10:18:35;;;;;;;18.50;6.13;;;26.30;54.10;;;;;;4753300;30;20036;-79
2021/09/08 10:21:03;;;;;;;14.57;6.25;;;26.50;53.30;;;;;;4752483;30;20067;-79
2021/09/08 10:23:33;;;;;;;9.95;6.18;;;26.50;53.50;;;;;;4752321;30;20039;-78
2021/09/08 10:25:59;;;;;;;12.90;6.43;;;26.60;52.10;;;;;;4752690;30;20032;-79
2021/09/08 10:28:28;;;;;;;11.43;6.00;;;26.70;51.90;;;;;;4767373;30;20107;-78
2021/09/08 10:30:55;;;;;;;13.27;5.35;;;26.80;51.80;;;;;;4781604;30;20023;-76
2021/09/08 10:33:20;;;;;;;16.33;5.53;;;26.90;51.50;;;;;;4765384;30;20058;-76
2021/09/08 10:35:47;;;;;;;16.17;5.75;;;26.90;49.60;;;;;;4765517;30;20307;-76
2021/09/08 10:38:17;;;;;;;9.27;5.85;;;27.00;51.90;;;;;;4780163;30;20036;-75
2021/09/08 10:40:45;;;;;;;15.27;6.53;;;26.90;48.70;;;;;;4750198;30;20044;-75
2021/09/08 10:43:11;;;;;;;10.43;5.40;;;26.90;49.00;;;;;;4765339;30;20293;-75
2021/09/08 10:45:51;;;;;;;12.80;5.10;;;27.00;48.20;;;;;;4779910;30;20093;-76
2021/09/08 10:48:42;;;;;;;13.23;5.43;;;27.10;46.20;;;;;;4780077;30;20040;-76
2021/09/08 10:51:09;;;;;;;11.48;5.90;;;27.00;44.10;;;;;;4780198;30;20036;-76
2021/09/08 10:53:37;;;;;;;15.98;5.00;;;26.90;45.60;;;;;;4820697;29;20049;-76
2021/09/08 10:56:05;;;;;;;21.73;5.63;;;27.00;46.80;;;;;;4835964;29;20054;-75
2021/09/08 10:58:59;;;;;;;12.80;5.65;;;27.20;46.10;;;;;;4835728;29;20033;-77
2021/09/08 11:01:26;;;;;;;17.35;5.78;;;27.30;46.70;;;;;;4840219;29;20037;-76
2021/09/08 11:03:52;;;;;;;18.85;5.35;;;27.50;43.00;;;;;;4854473;29;20033;-76
2021/09/08 11:06:31;;;;;;;17.60;5.40;;;27.40;45.40;;;;;;4852762;29;20058;-76
2021/09/08 11:09:01;;;;;;;18.08;5.70;;;27.50;44.00;;;;;;4853946;29;20082;-75
2021/09/08 11:11:26;;;;;;;12.40;5.60;;;27.50;43.20;;;;;;4853051;29;20025;-76
2021/09/08 11:13:55;;;;;;;17.55;6.22;;;27.40;43.10;;;;;;4854213;29;20026;-76
2021/09/08 11:16:24;;;;;;;8.02;5.55;;;27.30;44.30;;;;;;4854026;29;20030;-76
2021/09/08 11:18:51;;;;;;;14.95;4.88;;;27.40;45.10;;;;;;4852529;29;20040;-77
2021/09/08 11:21:17;;;;;;;15.35;5.88;;;27.40;44.60;;;;;;4853399;29;20034;-75
2021/09/08 11:23:46;;;;;;;15.30;6.18;;;27.40;44.00;;;;;;4852719;29;20034;-76
2021/09/08 11:26:13;;;;;;;12.55;6.03;;;27.40;45.50;;;;;;4852583;29;20392;-76
2021/09/08 11:28:40;;;;;;;11.90;6.10;;;27.40;46.00;;;;;;4848954;29;20030;-76
2021/09/08 11:31:18;;;;;;;9.40;5.43;;;27.30;45.80;;;;;;4835113;29;20038;-76
2021/09/08 11:33:45;;;;;;;10.75;5.22;;;27.40;45.90;;;;;;4850434;29;22085;-76
2021/09/08 11:36:19;;;;;;;19.98;5.80;;;27.30;45.40;;;;;;4842605;29;20061;-75
2021/09/08 11:38:58;;;;;;;10.50;5.55;;;27.30;45.70;;;;;;4843078;29;20041;-76
2021/09/08 11:41:29;;;;;;;11.57;5.50;;;27.30;44.80;;;;;;4846012;29;20034;-76
2021/09/08 11:43:58;;;;;;;15.52;5.47;;;27.30;45.30;;;;;;4836812;29;20042;-76
2021/09/08 11:46:32;;;;;;;11.70;5.53;;;27.30;45.70;;;;;;4839681;29;20258;-76
2021/09/08 11:49:10;;;;;;;15.32;5.82;;;27.50;46.40;;;;;;4802436;29;20086;-75
2021/09/08 11:51:38;;;;;;;12.75;5.00;;;27.70;47.00;;;;;;4844319;29;20045;-75
2021/09/08 11:54:07;;;;;;;9.95;5.47;;;27.70;44.70;;;;;;4826861;29;20105;-76
2021/09/08 11:56:37;;;;;;;17.65;5.55;;;27.70;45.20;;;;;;4830415;29;20022;-75
2021/09/08 11:59:04;;;;;;;12.32;4.90;;;27.60;44.10;;;;;;4818418;29;20039;-75
2021/09/08 12:01:35;;;;;;;8.90;5.07;;;27.70;43.60;;;;;;4834794;29;20109;-76
2021/09/08 12:04:03;;;;;;;15.70;5.60;;;27.80;43.40;;;;;;4802638;29;20046;-76
2021/09/08 12:06:34;;;;;;;10.70;5.00;;;27.80;43.00;;;;;;4803224;29;20405;-76
2021/09/08 12:09:13;;;;;;;13.63;5.13;;;27.90;41.70;;;;;;4834265;29;20306;-76
2021/09/08 12:11:45;;;;;;;14.25;5.32;;;27.90;40.80;;;;;;4834557;29;20098;-76
2021/09/08 12:14:37;;;;;;;13.25;5.60;;;27.90;40.20;;;;;;4834750;29;20076;-77
2021/09/08 12:17:12;;;;;;;14.35;5.72;;;28.00;40.30;;;;;;4837303;29;20061;-76
2021/09/08 12:19:38;;;;;;;10.43;5.65;;;28.10;39.60;;;;;;4828340;29;20053;-76
2021/09/08 12:22:13;;;;;;;8.15;5.30;;;28.00;38.80;;;;;;4846173;29;20113;-77
2021/09/08 12:24:39;;;;;;;26.27;5.35;;;28.00;40.50;;;;;;4842205;29;20038;-77
2021/09/08 12:27:34;;;;;;;10.47;5.17;;;28.20;41.10;;;;;;4817311;29;20089;-77
2021/09/08 12:30:05;;;;;;;14.73;4.63;;;28.30;40.00;;;;;;4811142;29;20046;-77
2021/09/08 12:32:46;;;;;;;14.73;5.05;;;28.30;40.40;;;;;;4809552;29;20222;-78
2021/09/08 12:35:59;;;;;;;14.57;5.43;;;28.40;38.90;;;;;;4817473;29;20552;-77
2021/09/08 12:38:40;;;;;;;13.57;5.10;;;28.40;39.50;;;;;;4732947;30;20051;-77
2021/09/08 12:41:07;;;;;;;11.02;4.93;;;28.50;38.80;;;;;;4753348;30;20032;-77
2021/09/08 12:43:33;;;;;;;14.27;5.10;;;28.60;39.10;;;;;;4774528;30;20248;-77
2021/09/08 12:45:59;;;;;;;14.80;4.93;;;28.50;38.20;;;;;;4776564;29;20035;-77
2021/09/08 12:48:25;;;;;;;22.15;5.65;;;28.40;38.70;;;;;;4799033;29;20084;-76
2021/09/08 12:50:51;;;;;;;9.43;4.70;;;28.30;39.60;;;;;;4807733;29;20106;-76
2021/09/08 12:53:17;;;;;;;15.60;5.13;;;28.50;39.80;;;;;;4812470;29;20043;-76
2021/09/08 12:55:43;;;;;;;14.97;4.77;;;28.60;38.90;;;;;;4787148;29;20053;-77
2021/09/08 12:58:09;;;;;;;18.08;4.82;;;28.70;38.30;;;;;;4783600;30;20068;-77
2021/09/08 13:00:35;;;;;;;6.80;4.43;;;28.60;37.90;;;;;;4778744;29;20040;-78
2021/09/08 13:03:01;;;;;;;9.10;4.72;;;28.60;37.90;;;;;;4785269;30;20046;-79
2021/09/08 13:05:27;;;;;;;16.57;4.67;;;28.50;37.90;;;;;;4787653;29;20027;-79
2021/09/08 13:07:53;;;;;;;15.30;5.03;;;28.50;38.30;;;;;;4790468;29;20031;-78
2021/09/08 13:10:19;;;;;;;11.98;5.00;;;28.50;38.10;;;;;;4785234;29;20065;-78
2021/09/08 13:12:46;;;;;;;7.47;5.23;;;28.50;38.00;;;;;;4794859;29;20092;-79
2021/09/08 13:15:12;;;;;;;13.38;5.13;;;28.40;38.40;;;;;;4837349;29;20038;-79
2021/09/08 13:17:38;;;;;;;9.57;5.57;;;28.40;38.00;;;;;;4859513;29;20093;-78
2021/09/08 13:20:05;;;;;;;14.93;5.65;;;28.40;37.70;;;;;;4836916;29;20241;-78
2021/09/08 13:22:31;;;;;;;18.48;5.00;;;28.50;38.10;;;;;;4854777;29;20063;-79
2021/09/08 13:24:57;;;;;;;19.98;5.43;;;28.50;38.70;;;;;;4838650;29;20030;-79
2021/09/08 13:27:25;;;;;;;14.23;4.10;;;28.70;38.10;;;;;;4838622;29;20022;-79
2021/09/08 13:29:52;;;;;;;12.55;5.15;;;28.60;37.30;;;;;;4849416;29;20036;-79
2021/09/08 13:32:18;;;;;;;8.13;4.85;;;28.60;37.30;;;;;;4842889;29;20033;-79
2021/09/08 13:34:44;;;;;;;9.13;5.03;;;28.50;36.70;;;;;;4867670;29;20040;-79
2021/09/08 13:37:09;;;;;;;13.30;4.90;;;28.40;37.80;;;;;;4856006;29;20381;-80
2021/09/08 13:39:35;;;;;;;14.57;5.07;;;28.40;37.40;;;;;;4851758;29;20037;-81
2021/09/08 13:42:01;;;;;;;16.53;4.83;;;28.30;36.80;;;;;;4836966;29;20034;-79
2021/09/08 13:44:27;;;;;;;10.07;4.70;;;28.20;37.10;;;;;;4851580;29;20294;-79
2021/09/08 13:46:53;;;;;;;17.13;4.72;;;28.20;37.00;;;;;;4850560;29;20049;-79
2021/09/08 13:49:18;;;;;;;8.45;4.80;;;28.20;37.60;;;;;;4836898;29;20069;-80
2021/09/08 13:51:44;;;;;;;8.77;3.87;;;28.20;37.00;;;;;;4832327;29;20075;-79
2021/09/08 13:54:10;;;;;;;7.50;4.50;;;28.10;37.60;;;;;;4838408;29;20026;-81
2021/09/08 13:56:36;;;;;;;13.23;5.03;;;28.00;37.40;;;;;;4822024;29;20038;-79
2021/09/08 13:59:02;;;;;;;10.53;3.60;;;28.10;38.10;;;;;;4848724;29;20029;-79
2021/09/08 14:01:28;;;;;;;8.18;4.10;;;28.10;37.40;;;;;;4855780;29;20283;-80
2021/09/08 14:03:54;;;;;;;12.53;4.77;;;28.10;37.60;;;;;;4856632;29;20320;-79
2021/09/08 14:06:20;;;;;;;9.82;4.28;;;28.10;37.80;;;;;;4840062;29;20034;-80
2021/09/08 14:08:46;;;;;;;14.00;4.35;;;28.10;37.60;;;;;;4840233;29;20293;-80
2021/09/08 14:11:12;;;;;;;11.33;4.37;;;28.20;36.90;;;;;;4836896;29;20342;-79
2021/09/08 14:13:38;;;;;;;15.20;4.03;;;28.20;36.70;;;;;;4822313;29;20038;-80
2021/09/08 14:16:05;;;;;;;11.30;4.05;;;28.10;36.50;;;;;;4823492;29;20030;-79
2021/09/08 14:18:31;;;;;;;;;;;28.00;37.00;;;;;;4840048;29;20131;-80
2021/09/08 14:20:57;;;;;;;12.50;4.32;;;28.10;36.30;;;;;;4855087;29;19909;-80
2021/09/08 14:23:24;;;;;;;9.23;4.15;;;28.00;35.70;;;;;;4855815;29;20060;-79
2021/09/08 14:25:51;;;;;;;10.35;4.45;;;27.90;36.00;;;;;;4854639;29;20117;-80
2021/09/08 14:28:17;;;;;;;9.18;4.35;;;27.90;37.00;;;;;;4837890;29;20030;-80
2021/09/08 14:30:43;;;;;;;5.70;3.90;;;27.90;36.10;;;;;;4851851;29;20036;-79
2021/09/08 14:33:09;;;;;;;8.77;4.35;;;27.80;36.50;;;;;;4857363;29;20090;-81
2021/09/08 14:35:35;;;;;;;12.25;4.35;;;27.90;37.00;;;;;;4842008;29;20030;-79
2021/09/08 14:38:01;;;;;;;9.75;4.68;;;27.90;36.80;;;;;;4842163;29;20038;-82
2021/09/08 14:40:27;;;;;;;8.30;4.45;;;27.90;37.00;;;;;;4858627;29;20101;-81
2021/09/08 14:42:58;;;;;;;13.02;4.32;;;27.80;35.90;;;;;;4841247;29;20037;-82
2021/09/08 14:45:24;;;;;;;8.60;3.70;;;27.80;36.30;;;;;;4837920;29;20034;-82
2021/09/08 14:47:49;;;;;;;7.43;3.80;;;27.80;36.50;;;;;;4850791;29;20070;-79
2021/09/08 14:50:15;;;;;;;15.77;4.15;;;27.70;36.10;;;;;;4843282;29;20030;-82
2021/09/08 14:52:42;;;;;;;12.15;4.65;;;27.70;36.30;;;;;;4857735;29;20057;-81
2021/09/08 14:55:08;;;;;;;17.05;5.10;;;27.70;35.80;;;;;;4842524;29;20080;-82
2021/09/08 14:57:34;;;;;;;11.70;4.10;;;27.70;36.50;;;;;;4857013;29;20042;-82
2021/09/08 15:00:00;;;;;;;6.70;4.15;;;27.60;35.70;;;;;;4841564;29;20086;-82
2021/09/08 15:02:26;;;;;;;9.65;4.63;;;27.60;35.70;;;;;;4855055;29;20039;-81
2021/09/08 15:04:52;;;;;;;12.27;4.97;;;27.50;36.00;;;;;;4835585;29;20059;-81
2021/09/08 15:07:18;;;;;;;9.38;4.82;;;27.50;35.50;;;;;;4848045;29;20026;-81
2021/09/08 15:09:44;;;;;;;15.30;4.80;;;27.40;35.60;;;;;;4850552;29;20026;-82
2021/09/08 15:12:11;;;;;;;19.67;4.53;;;27.40;36.10;;;;;;4833688;29;20030;-82
2021/09/08 15:14:38;;;;;;;8.40;4.47;;;27.40;36.70;;;;;;4850443;29;20074;-82
2021/09/08 15:17:04;;;;;;;10.20;4.15;;;27.40;36.20;;;;;;4842094;29;20040;-82
2021/09/08 15:19:30;;;;;;;11.48;4.50;;;27.50;36.80;;;;;;4857638;29;20046;-81